sensor_id;sensor_type;location;lat;lon;timestamp;P1;durP1;ratioP1;P2;durP2;ratioP2
43861;SDS011;29510;52.140;5.034;2023-03-14T00:06:32;2.92;;;1.20;;
43861;SDS011;29510;52.140;5.034;2023-03-14T00:16:35;3.88;;;1.00;;
43861;SDS011;29510;52.140;5.034;2023-03-14T00:26:36;10.05;;;1.85;;
43861;SDS011;29510;52.140;5.034;2023-03-14T00:36:37;6.38;;;1.58;;
43861;SDS011;29510;52.140;5.034;2023-03-14T00:46:38;6.22;;;1.40;;
43861;SDS011;29510;52.140;5.034;2023-03-14T00:56:40;2.40;;;0.55;;
43861;SDS011;29510;52.140;5.034;2023-03-14T01:06:41;3.05;;;1.23;;
43861;SDS011;29510;52.140;5.034;2023-03-14T01:16:42;4.53;;;1.33;;
43861;SDS011;29510;52.140;5.034;2023-03-14T01:26:43;3.60;;;0.65;;
43861;SDS011;29510;52.140;5.034;2023-03-14T01:36:44;4.00;;;1.83;;
43861;SDS011;29510;52.140;5.034;2023-03-14T01:46:45;4.07;;;1.35;;
43861;SDS011;29510;52.140;5.034;2023-03-14T01:56:49;5.93;;;1.73;;
43861;SDS011;29510;52.140;5.034;2023-03-14T02:07:18;6.53;;;2.10;;
43861;SDS011;29510;52.140;5.034;2023-03-14T02:17:23;3.15;;;0.82;;
43861;SDS011;29510;52.140;5.034;2023-03-14T02:27:25;2.33;;;0.85;;
43861;SDS011;29510;52.140;5.034;2023-03-14T02:37:29;2.92;;;0.60;;
43861;SDS011;29510;52.140;5.034;2023-03-14T02:47:37;3.90;;;1.00;;
43861;SDS011;29510;52.140;5.034;2023-03-14T02:57:43;2.40;;;0.70;;
43861;SDS011;29510;52.140;5.034;2023-03-14T03:07:45;2.47;;;0.80;;
43861;SDS011;29510;52.140;5.034;2023-03-14T03:17:46;3.83;;;0.90;;
43861;SDS011;29510;52.140;5.034;2023-03-14T03:27:47;12.30;;;1.05;;
43861;SDS011;29510;52.140;5.034;2023-03-14T03:37:48;3.88;;;1.52;;
43861;SDS011;29510;52.140;5.034;2023-03-14T03:47:49;3.20;;;1.13;;
43861;SDS011;29510;52.140;5.034;2023-03-14T03:57:50;4.05;;;1.42;;
43861;SDS011;29510;52.140;5.034;2023-03-14T04:07:51;2.35;;;0.60;;
43861;SDS011;29510;52.140;5.034;2023-03-14T04:17:56;8.70;;;1.30;;
43861;SDS011;29510;52.140;5.034;2023-03-14T04:27:58;4.00;;;1.00;;
43861;SDS011;29510;52.140;5.034;2023-03-14T04:37:59;2.33;;;0.70;;
43861;SDS011;29510;52.140;5.034;2023-03-14T04:48:00;1.73;;;0.65;;
43861;SDS011;29510;52.140;5.034;2023-03-14T04:58:01;4.63;;;0.73;;
43861;SDS011;29510;52.140;5.034;2023-03-14T05:08:02;2.47;;;0.70;;
43861;SDS011;29510;52.140;5.034;2023-03-14T05:18:03;2.97;;;0.82;;
43861;SDS011;29510;52.140;5.034;2023-03-14T05:28:05;3.30;;;0.88;;
43861;SDS011;29510;52.140;5.034;2023-03-14T05:38:06;1.80;;;0.50;;
43861;SDS011;29510;52.140;5.034;2023-03-14T05:48:07;1.33;;;0.52;;
43861;SDS011;29510;52.140;5.034;2023-03-14T05:58:08;2.75;;;1.15;;
43861;SDS011;29510;52.140;5.034;2023-03-14T06:08:09;2.65;;;1.05;;
43861;SDS011;29510;52.140;5.034;2023-03-14T06:18:11;1.95;;;0.45;;
43861;SDS011;29510;52.140;5.034;2023-03-14T06:28:14;0.30;;;0.20;;
43861;SDS011;29510;52.140;5.034;2023-03-14T06:38:15;2.28;;;0.50;;
43861;SDS011;29510;52.140;5.034;2023-03-14T06:48:16;4.38;;;0.70;;
43861;SDS011;29510;52.140;5.034;2023-03-14T06:58:19;0.85;;;0.35;;
43861;SDS011;29510;52.140;5.034;2023-03-14T07:08:20;0.55;;;0.20;;
43861;SDS011;29510;52.140;5.034;2023-03-14T07:18:21;1.25;;;0.50;;
43861;SDS011;29510;52.140;5.034;2023-03-14T07:28:23;1.30;;;0.57;;
43861;SDS011;29510;52.140;5.034;2023-03-14T07:38:24;1.17;;;0.75;;
43861;SDS011;29510;52.140;5.034;2023-03-14T07:48:25;0.30;;;0.17;;
43861;SDS011;29510;52.140;5.034;2023-03-14T07:58:27;1.30;;;0.10;;
43861;SDS011;29510;52.140;5.034;2023-03-14T08:08:28;2.63;;;0.30;;
43861;SDS011;29510;52.140;5.034;2023-03-14T08:18:29;3.65;;;0.90;;
43861;SDS011;29510;52.140;5.034;2023-03-14T08:28:30;3.08;;;0.73;;
43861;SDS011;29510;52.140;5.034;2023-03-14T08:38:33;0.93;;;0.68;;
43861;SDS011;29510;52.140;5.034;2023-03-14T08:48:34;0.47;;;0.17;;
43861;SDS011;29510;52.140;5.034;2023-03-14T08:58:36;3.65;;;1.23;;
43861;SDS011;29510;52.140;5.034;2023-03-14T09:08:38;4.97;;;1.08;;
43861;SDS011;29510;52.140;5.034;2023-03-14T09:18:39;2.95;;;1.23;;
43861;SDS011;29510;52.140;5.034;2023-03-14T09:28:40;3.03;;;0.82;;
43861;SDS011;29510;52.140;5.034;2023-03-14T09:38:41;5.22;;;1.80;;
43861;SDS011;29510;52.140;5.034;2023-03-14T09:48:42;2.47;;;0.80;;
43861;SDS011;29510;52.140;5.034;2023-03-14T09:58:45;13.15;;;3.25;;
43861;SDS011;29510;52.140;5.034;2023-03-14T10:08:51;5.13;;;1.67;;
43861;SDS011;29510;52.140;5.034;2023-03-14T10:19:00;9.13;;;1.95;;
43861;SDS011;29510;52.140;5.034;2023-03-14T10:29:13;3.38;;;1.23;;
43861;SDS011;29510;52.140;5.034;2023-03-14T10:49:52;5.85;;;2.60;;
43861;SDS011;29510;52.140;5.034;2023-03-14T10:59:53;7.10;;;1.65;;
43861;SDS011;29510;52.140;5.034;2023-03-14T11:20:35;8.88;;;2.58;;
43861;SDS011;29510;52.140;5.034;2023-03-14T11:40:46;4.38;;;1.15;;
43861;SDS011;29510;52.140;5.034;2023-03-14T11:50:52;3.92;;;1.55;;
43861;SDS011;29510;52.140;5.034;2023-03-14T12:00:56;5.90;;;1.23;;
43861;SDS011;29510;52.140;5.034;2023-03-14T12:11:04;5.43;;;0.87;;
43861;SDS011;29510;52.140;5.034;2023-03-14T12:21:15;3.28;;;1.00;;
43861;SDS011;29510;52.140;5.034;2023-03-14T12:41:36;2.70;;;1.02;;
43861;SDS011;29510;52.140;5.034;2023-03-14T12:51:53;1.27;;;0.52;;
43861;SDS011;29510;52.140;5.034;2023-03-14T13:02:01;2.15;;;0.38;;
43861;SDS011;29510;52.140;5.034;2023-03-14T13:12:16;1.17;;;0.40;;
43861;SDS011;29510;52.140;5.034;2023-03-14T13:22:21;4.78;;;1.88;;
43861;SDS011;29510;52.140;5.034;2023-03-14T13:32:30;2.55;;;0.50;;
43861;SDS011;29510;52.140;5.034;2023-03-14T13:42:31;2.25;;;0.60;;
43861;SDS011;29510;52.140;5.034;2023-03-14T13:52:36;1.52;;;0.82;;
43861;SDS011;29510;52.140;5.034;2023-03-14T14:02:38;3.88;;;1.42;;
43861;SDS011;29510;52.140;5.034;2023-03-14T14:12:42;6.07;;;0.40;;
43861;SDS011;29510;52.140;5.034;2023-03-14T14:22:55;1.83;;;0.30;;
43861;SDS011;29510;52.140;5.034;2023-03-14T14:33:09;1.40;;;0.30;;
43861;SDS011;29510;52.140;5.034;2023-03-14T14:43:18;2.00;;;0.50;;
43861;SDS011;29510;52.140;5.034;2023-03-14T15:03:32;1.42;;;0.52;;
43861;SDS011;29510;52.140;5.034;2023-03-14T15:13:34;1.85;;;0.65;;
43861;SDS011;29510;52.140;5.034;2023-03-14T15:23:36;0.90;;;0.30;;
43861;SDS011;29510;52.140;5.034;2023-03-14T15:33:37;3.70;;;0.98;;
43861;SDS011;29510;52.140;5.034;2023-03-14T15:43:38;1.38;;;0.40;;
43861;SDS011;29510;52.140;5.034;2023-03-14T15:53:39;3.47;;;0.43;;
43861;SDS011;29510;52.140;5.034;2023-03-14T16:03:41;16.65;;;1.50;;
43861;SDS011;29510;52.140;5.034;2023-03-14T16:13:44;1.05;;;0.32;;
43861;SDS011;29510;52.140;5.034;2023-03-14T16:23:45;1.58;;;0.52;;
43861;SDS011;29510;52.140;5.034;2023-03-14T16:33:46;1.20;;;0.47;;
43861;SDS011;29510;52.140;5.034;2023-03-14T16:43:47;1.25;;;0.40;;
43861;SDS011;29510;52.140;5.034;2023-03-14T16:53:51;1.23;;;0.45;;
43861;SDS011;29510;52.140;5.034;2023-03-14T17:03:52;4.43;;;1.38;;
43861;SDS011;29510;52.140;5.034;2023-03-14T17:13:53;2.38;;;0.50;;
43861;SDS011;29510;52.140;5.034;2023-03-14T17:23:54;2.65;;;0.73;;
43861;SDS011;29510;52.140;5.034;2023-03-14T17:33:56;1.63;;;0.68;;
43861;SDS011;29510;52.140;5.034;2023-03-14T17:43:57;5.55;;;1.02;;
43861;SDS011;29510;52.140;5.034;2023-03-14T17:53:58;8.52;;;1.05;;
43861;SDS011;29510;52.140;5.034;2023-03-14T18:04:00;1.95;;;0.43;;
43861;SDS011;29510;52.140;5.034;2023-03-14T18:14:01;1.67;;;0.70;;
43861;SDS011;29510;52.140;5.034;2023-03-14T18:24:06;7.35;;;2.22;;
43861;SDS011;29510;52.140;5.034;2023-03-14T18:34:10;2.22;;;1.15;;
43861;SDS011;29510;52.140;5.034;2023-03-14T18:44:11;7.15;;;3.22;;
43861;SDS011;29510;52.140;5.034;2023-03-14T18:54:12;7.43;;;3.47;;
43861;SDS011;29510;52.140;5.034;2023-03-14T19:04:13;7.03;;;2.97;;
43861;SDS011;29510;52.140;5.034;2023-03-14T19:14:14;8.85;;;3.90;;
43861;SDS011;29510;52.140;5.034;2023-03-14T19:24:17;7.75;;;4.38;;
43861;SDS011;29510;52.140;5.034;2023-03-14T19:34:19;10.15;;;2.45;;
43861;SDS011;29510;52.140;5.034;2023-03-14T19:44:25;4.75;;;2.97;;
43861;SDS011;29510;52.140;5.034;2023-03-14T19:54:26;2.17;;;0.63;;
43861;SDS011;29510;52.140;5.034;2023-03-14T20:04:27;3.90;;;1.90;;
43861;SDS011;29510;52.140;5.034;2023-03-14T20:14:28;2.72;;;1.33;;
43861;SDS011;29510;52.140;5.034;2023-03-14T20:24:29;8.35;;;1.52;;
43861;SDS011;29510;52.140;5.034;2023-03-14T20:34:31;2.00;;;1.00;;
43861;SDS011;29510;52.140;5.034;2023-03-14T20:44:34;4.00;;;1.35;;
43861;SDS011;29510;52.140;5.034;2023-03-14T20:54:35;1.48;;;0.73;;
43861;SDS011;29510;52.140;5.034;2023-03-14T21:04:36;1.60;;;0.32;;
43861;SDS011;29510;52.140;5.034;2023-03-14T21:14:37;2.03;;;1.00;;
43861;SDS011;29510;52.140;5.034;2023-03-14T21:24:38;6.30;;;1.40;;
43861;SDS011;29510;52.140;5.034;2023-03-14T21:34:39;1.25;;;0.55;;
43861;SDS011;29510;52.140;5.034;2023-03-14T21:44:40;1.67;;;0.85;;
43861;SDS011;29510;52.140;5.034;2023-03-14T21:54:45;0.63;;;0.28;;
43861;SDS011;29510;52.140;5.034;2023-03-14T22:04:47;0.65;;;0.28;;
43861;SDS011;29510;52.140;5.034;2023-03-14T22:14:48;0.63;;;0.25;;
43861;SDS011;29510;52.140;5.034;2023-03-14T22:24:50;2.50;;;0.38;;
43861;SDS011;29510;52.140;5.034;2023-03-14T22:34:55;0.03;;;0.03;;
43861;SDS011;29510;52.140;5.034;2023-03-14T22:44:57;0.22;;;0.10;;
43861;SDS011;29510;52.140;5.034;2023-03-14T22:54:58;0.45;;;0.20;;
43861;SDS011;29510;52.140;5.034;2023-03-14T23:04:59;1.23;;;0.10;;
43861;SDS011;29510;52.140;5.034;2023-03-14T23:15:00;0.68;;;0.20;;
43861;SDS011;29510;52.140;5.034;2023-03-14T23:25:02;0.30;;;0.10;;
43861;SDS011;29510;52.140;5.034;2023-03-14T23:35:03;5.57;;;0.30;;
43861;SDS011;29510;52.140;5.034;2023-03-14T23:45:07;2.33;;;0.17;;
43861;SDS011;29510;52.140;5.034;2023-03-14T23:55:10;0.52;;;0.30;;
